Time;durP1;ratioP1;P1;durP2;ratioP2;P2;SDS_P1;SDS_P2;PMS_P1;PMS_P2;Temp;Humidity;BMP_temperature;BMP_pressure;BME280_temperature;BME280_humidity;BME280_pressure;Samples;Min_cycle;Max_cycle;Signal;HPM_P1;HPM_P2
2022/05/01 00:00:41;;;;;;;15.65;11.00;;;;;;;;;;5001114;28;20049;-70
2022/05/01 00:03:30;;;;;;;18.85;11.35;;;;;;;;;;5005796;28;20069;-70
2022/05/01 00:05:56;;;;;;;15.88;11.98;;;;;;;;;;5008178;28;20116;-70
2022/05/01 00:08:23;;;;;;;14.50;11.68;;;;;;;;;;5007176;28;20049;-69
2022/05/01 00:10:52;;;;;;;17.17;12.35;;;;;;;;;;5005382;28;20073;-69
2022/05/01 00:13:19;;;;;;;16.80;12.15;;;;;;;;;;5009739;28;20057;-69
2022/05/01 00:15:47;;;;;;;17.08;11.63;;;;;;;;;;5009712;28;20766;-70
2022/05/01 00:18:14;;;;;;;16.70;11.68;;;;;;;;;;5005049;28;20050;-70
2022/05/01 00:20:41;;;;;;;15.02;12.05;;;;;;;;;;5004905;28;20061;-70
2022/05/01 00:23:08;;;;;;;15.48;12.02;;;;;;;;;;5006537;28;20054;-70
2022/05/01 00:25:36;;;;;;;14.43;11.88;;;;;;;;;;5004549;28;20053;-70
2022/05/01 00:28:05;;;;;;;16.67;11.85;;;;;;;;;;5005778;28;20068;-69
2022/05/01 00:30:33;;;;;;;15.05;11.48;;;;;;;;;;5005590;28;20053;-69
2022/05/01 00:38:41;;;;;;;16.42;11.40;;;;;;;;;;4999001;28;20061;-70
2022/05/01 00:41:09;;;;;;;16.35;12.07;;;;;;;;;;5007024;28;20061;-70
2022/05/01 00:43:51;;;;;;;15.85;11.80;;;;;;;;;;5005189;28;20733;-70
2022/05/01 00:46:19;;;;;;;16.52;11.80;;;;;;;;;;5004115;28;20061;-70
2022/05/01 00:48:47;;;;;;;17.40;11.68;;;;;;;;;;5002647;28;20563;-69
2022/05/01 00:51:14;;;;;;;16.05;11.48;;;;;;;;;;5006670;28;20165;-69
2022/05/01 00:53:43;;;;;;;17.38;12.07;;;;;;;;;;5005830;28;20129;-70
2022/05/01 00:56:10;;;;;;;13.77;11.73;;;;;;;;;;5005380;28;20393;-70
2022/05/01 00:58:38;;;;;;;16.70;12.82;;;;;;;;;;5006307;28;20053;-69
2022/05/01 01:01:06;;;;;;;17.20;12.00;;;;;;;;;;5004154;28;20056;-70
2022/05/01 01:03:34;;;;;;;18.50;12.07;;;;;;;;;;5004083;28;20058;-70
2022/05/01 01:06:01;;;;;;;20.70;13.60;;;;;;;;;;5005408;28;20050;-70
2022/05/01 01:08:30;;;;;;;17.10;12.23;;;;;;;;;;5006507;28;20512;-70
2022/05/01 01:10:57;;;;;;;16.65;12.40;;;;;;;;;;5004792;28;20053;-70
2022/05/01 01:13:27;;;;;;;14.32;12.32;;;;;;;;;;5007061;28;20437;-70
2022/05/01 01:15:54;;;;;;;15.85;11.90;;;;;;;;;;4995429;28;20135;-70
2022/05/01 01:18:22;;;;;;;20.30;12.27;;;;;;;;;;5005292;28;20046;-70
2022/05/01 01:20:52;;;;;;;17.48;12.25;;;;;;;;;;5001435;28;20067;-69
2022/05/01 01:23:19;;;;;;;15.93;12.15;;;;;;;;;;5003298;28;20050;-69
2022/05/01 01:25:48;;;;;;;15.32;11.95;;;;;;;;;;5006282;28;20049;-70
2022/05/01 01:28:16;;;;;;;16.67;12.40;;;;;;;;;;5004902;28;20069;-70
2022/05/01 01:33:31;;;;;;;20.13;14.27;;;;;;;;;;5002437;28;20073;-70
2022/05/01 01:36:02;;;;;;;19.35;13.18;;;;;;;;;;5003941;28;20416;-70
2022/05/01 01:38:30;;;;;;;17.17;12.77;;;;;;;;;;5000736;28;20048;-70
2022/05/01 01:40:58;;;;;;;20.08;13.23;;;;;;;;;;5004633;28;20405;-70
2022/05/01 01:43:26;;;;;;;16.60;12.68;;;;;;;;;;4996990;28;20112;-70
2022/05/01 01:45:53;;;;;;;19.27;13.13;;;;;;;;;;4996909;28;20138;-69
2022/05/01 01:48:21;;;;;;;14.15;10.23;;;;;;;;;;5000896;28;20069;-69
2022/05/01 01:50:56;;;;;;;12.43;10.15;;;;;;;;;;5004330;28;20129;-69
2022/05/01 01:53:25;;;;;;;11.30;8.93;;;;;;;;;;5000911;28;20053;-70
2022/05/01 01:55:52;;;;;;;11.02;9.25;;;;;;;;;;5004713;28;20053;-70
2022/05/01 01:58:20;;;;;;;10.95;9.50;;;;;;;;;;5005685;28;20042;-70
2022/05/01 02:00:47;;;;;;;9.48;8.48;;;;;;;;;;5005161;28;20065;-70
2022/05/01 02:03:15;;;;;;;10.90;9.45;;;;;;;;;;5003134;28;20065;-70
2022/05/01 02:05:43;;;;;;;15.35;11.43;;;;;;;;;;5006085;28;20089;-70
2022/05/01 02:08:11;;;;;;;13.02;10.25;;;;;;;;;;5009338;28;20046;-70
2022/05/01 02:10:40;;;;;;;13.63;9.43;;;;;;;;;;5004111;28;20076;-70
2022/05/01 02:13:07;;;;;;;14.38;9.98;;;;;;;;;;5005673;28;20057;-70
2022/05/01 02:15:35;;;;;;;12.48;10.15;;;;;;;;;;5007374;28;20042;-69
2022/05/01 02:18:03;;;;;;;14.07;11.43;;;;;;;;;;5010228;28;20077;-70
2022/05/01 02:21:34;;;;;;;13.70;10.60;;;;;;;;;;5009992;28;20164;-70
2022/05/01 02:23:20;;;;;;;16.77;11.77;;;;;;;;;;5007619;28;20485;-70
2022/05/01 02:25:48;;;;;;;15.20;12.10;;;;;;;;;;5004423;28;20054;-70
2022/05/01 02:28:16;;;;;;;15.05;11.88;;;;;;;;;;5005248;28;20050;-69
2022/05/01 02:30:43;;;;;;;13.98;11.57;;;;;;;;;;5006719;28;20061;-69
2022/05/01 02:33:10;;;;;;;17.48;11.07;;;;;;;;;;5009478;28;20053;-69
2022/05/01 02:35:38;;;;;;;15.30;11.48;;;;;;;;;;5007524;28;20100;-69
2022/05/01 02:38:06;;;;;;;16.67;13.02;;;;;;;;;;5007458;28;20050;-69
2022/05/01 02:40:34;;;;;;;15.95;11.90;;;;;;;;;;5005780;28;20061;-69
2022/05/01 02:43:05;;;;;;;21.02;12.82;;;;;;;;;;5008241;28;20128;-69
2022/05/01 02:45:32;;;;;;;13.55;10.80;;;;;;;;;;5007550;28;20401;-69
2022/05/01 02:47:59;;;;;;;13.13;10.38;;;;;;;;;;5008228;28;20050;-70
2022/05/01 02:50:27;;;;;;;10.70;8.90;;;;;;;;;;5004941;28;20553;-71
2022/05/01 02:52:55;;;;;;;16.05;10.90;;;;;;;;;;5006985;28;20061;-69
2022/05/01 02:55:22;;;;;;;16.90;12.80;;;;;;;;;;5008307;28;20049;-69
2022/05/01 02:57:49;;;;;;;13.50;10.65;;;;;;;;;;5008934;28;20512;-69
2022/05/01 03:00:18;;;;;;;16.42;12.30;;;;;;;;;;5007199;28;20466;-70
2022/05/01 03:02:46;;;;;;;15.75;12.80;;;;;;;;;;5007568;28;20497;-69
2022/05/01 03:05:13;;;;;;;13.90;10.55;;;;;;;;;;5006245;28;20832;-70
2022/05/01 03:07:40;;;;;;;12.20;9.88;;;;;;;;;;5007353;28;20042;-70
2022/05/01 03:10:08;;;;;;;12.18;9.63;;;;;;;;;;5005958;28;20057;-70
2022/05/01 03:12:37;;;;;;;11.65;8.43;;;;;;;;;;5003394;28;20053;-70
2022/05/01 03:15:04;;;;;;;10.63;8.13;;;;;;;;;;5008776;28;20151;-69
2022/05/01 03:22:59;;;;;;;6.15;5.55;;;;;;;;;;5004210;28;20057;-69
2022/05/01 03:25:26;;;;;;;8.85;6.55;;;;;;;;;;5010376;28;20819;-69
2022/05/01 03:27:54;;;;;;;13.98;9.70;;;;;;;;;;5006373;28;20101;-69
2022/05/01 03:30:21;;;;;;;12.85;9.65;;;;;;;;;;5005624;28;20485;-70
2022/05/01 03:32:50;;;;;;;12.32;9.15;;;;;;;;;;5008750;28;20065;-70
2022/05/01 03:35:17;;;;;;;12.15;8.18;;;;;;;;;;5003650;28;20065;-70
2022/05/01 03:37:45;;;;;;;11.25;8.88;;;;;;;;;;5005388;28;20889;-70
2022/05/01 03:40:14;;;;;;;10.43;8.77;;;;;;;;;;5004505;28;20491;-70
2022/05/01 03:42:41;;;;;;;11.38;8.52;;;;;;;;;;5005230;28;20056;-70
2022/05/01 03:45:09;;;;;;;11.18;8.32;;;;;;;;;;5005895;28;20107;-69
2022/05/01 03:47:36;;;;;;;10.07;7.80;;;;;;;;;;5002596;28;20132;-69
2022/05/01 03:50:06;;;;;;;13.43;8.70;;;;;;;;;;5000443;28;20565;-70
2022/05/01 03:52:33;;;;;;;9.95;8.02;;;;;;;;;;5004271;28;20057;-70
2022/05/01 03:55:01;;;;;;;11.88;8.63;;;;;;;;;;4999158;28;20054;-70
2022/05/01 03:57:28;;;;;;;11.32;8.57;;;;;;;;;;5001199;28;20054;-70
2022/05/01 03:59:55;;;;;;;12.02;9.88;;;;;;;;;;4998177;28;20515;-70
2022/05/01 04:02:22;;;;;;;10.73;8.93;;;;;;;;;;4999971;28;20046;-69
2022/05/01 04:04:50;;;;;;;9.52;8.30;;;;;;;;;;4999056;28;20076;-69
2022/05/01 04:07:18;;;;;;;9.30;8.25;;;;;;;;;;5003580;28;20049;-69
2022/05/01 04:09:45;;;;;;;10.45;8.07;;;;;;;;;;4998987;28;20456;-69
2022/05/01 04:12:13;;;;;;;11.77;10.07;;;;;;;;;;5005139;28;20057;-69
2022/05/01 04:14:40;;;;;;;11.55;9.88;;;;;;;;;;5004204;28;20053;-69
2022/05/01 04:17:07;;;;;;;12.38;10.00;;;;;;;;;;5002238;28;20929;-69
2022/05/01 04:19:35;;;;;;;11.63;9.80;;;;;;;;;;4998992;28;20053;-70
2022/05/01 04:22:02;;;;;;;13.23;8.57;;;;;;;;;;5002558;28;20262;-69
2022/05/01 04:24:30;;;;;;;11.60;9.63;;;;;;;;;;5004362;28;20045;-69
2022/05/01 04:26:57;;;;;;;10.85;7.63;;;;;;;;;;5005112;28;20066;-70
2022/05/01 04:29:41;;;;;;;8.95;6.20;;;;;;;;;;5001813;28;20050;-70
2022/05/01 04:32:10;;;;;;;8.32;6.53;;;;;;;;;;5002503;28;20472;-70
2022/05/01 04:34:37;;;;;;;11.80;7.45;;;;;;;;;;5002121;28;20092;-70
2022/05/01 04:37:05;;;;;;;9.50;6.60;;;;;;;;;;5004582;28;20141;-70
2022/05/01 04:39:33;;;;;;;10.23;7.18;;;;;;;;;;4999800;28;20402;-69
2022/05/01 04:42:01;;;;;;;11.48;8.48;;;;;;;;;;4999027;28;20058;-70
2022/05/01 04:44:28;;;;;;;10.18;7.97;;;;;;;;;;4996338;28;20058;-70
2022/05/01 04:46:55;;;;;;;10.75;8.60;;;;;;;;;;5003403;28;20050;-70
2022/05/01 04:49:22;;;;;;;12.32;9.13;;;;;;;;;;5001570;28;20067;-69
2022/05/01 04:51:49;;;;;;;12.50;9.40;;;;;;;;;;4998529;28;20068;-70
2022/05/01 04:54:17;;;;;;;13.50;10.18;;;;;;;;;;4996919;28;20065;-70
2022/05/01 04:59:30;;;;;;;11.82;9.10;;;;;;;;;;4998369;28;20042;-70
2022/05/01 05:01:57;;;;;;;10.32;9.20;;;;;;;;;;4998581;28;20057;-70
2022/05/01 05:04:27;;;;;;;13.50;9.68;;;;;;;;;;5001439;28;20132;-70
2022/05/01 05:06:54;;;;;;;12.35;10.15;;;;;;;;;;5000984;28;20064;-70
2022/05/01 05:12:09;;;;;;;12.48;9.63;;;;;;;;;;5005016;28;20061;-70
2022/05/01 05:14:36;;;;;;;14.35;9.27;;;;;;;;;;4996080;28;20066;-70
2022/05/01 05:17:06;;;;;;;15.02;9.25;;;;;;;;;;4993143;28;20492;-70
2022/05/01 05:19:34;;;;;;;9.82;7.78;;;;;;;;;;4990567;28;20046;-70
2022/05/01 05:22:01;;;;;;;11.35;7.97;;;;;;;;;;4993457;28;21129;-70
2022/05/01 05:24:28;;;;;;;10.85;8.30;;;;;;;;;;4991505;28;20049;-70
2022/05/01 05:26:55;;;;;;;11.13;8.77;;;;;;;;;;4996355;28;20116;-70
2022/05/01 05:29:24;;;;;;;11.40;9.05;;;;;;;;;;4994839;28;20058;-70
2022/05/01 05:31:51;;;;;;;13.68;10.48;;;;;;;;;;5003694;28;20049;-70
2022/05/01 05:34:18;;;;;;;16.13;11.27;;;;;;;;;;4995072;28;20053;-70
2022/05/01 05:36:46;;;;;;;16.23;12.07;;;;;;;;;;4999011;28;20050;-69
2022/05/01 05:39:13;;;;;;;16.73;10.75;;;;;;;;;;4997876;28;20045;-69
2022/05/01 05:41:40;;;;;;;16.83;11.68;;;;;;;;;;4995742;28;20053;-70
2022/05/01 05:44:07;;;;;;;16.75;12.88;;;;;;;;;;4987495;28;20220;-70
2022/05/01 05:46:36;;;;;;;21.75;15.80;;;;;;;;;;4988740;28;20128;-71
2022/05/01 05:49:03;;;;;;;19.55;14.35;;;;;;;;;;4988750;28;20185;-71
2022/05/01 05:51:31;;;;;;;20.23;14.80;;;;;;;;;;4989693;28;20057;-68
2022/05/01 05:53:58;;;;;;;22.20;15.77;;;;;;;;;;4990815;28;20723;-70
2022/05/01 05:56:25;;;;;;;21.85;15.82;;;;;;;;;;4989975;28;20046;-70
2022/05/01 05:58:53;;;;;;;19.63;14.68;;;;;;;;;;4989566;28;20050;-70
2022/05/01 06:01:20;;;;;;;17.67;13.73;;;;;;;;;;4990884;28;20054;-70
2022/05/01 06:03:50;;;;;;;18.88;14.23;;;;;;;;;;4989477;28;20056;-70
2022/05/01 06:06:18;;;;;;;21.00;14.27;;;;;;;;;;4990304;28;20864;-70
2022/05/01 06:08:45;;;;;;;17.55;13.57;;;;;;;;;;4987181;28;20137;-70
2022/05/01 06:11:12;;;;;;;19.05;14.77;;;;;;;;;;4987848;28;20112;-71
2022/05/01 06:13:40;;;;;;;19.38;15.57;;;;;;;;;;4989943;28;20049;-69
2022/05/01 06:16:07;;;;;;;21.38;15.60;;;;;;;;;;4991856;28;20053;-70
2022/05/01 06:18:34;;;;;;;20.92;15.13;;;;;;;;;;4992896;28;20050;-69
2022/05/01 06:21:02;;;;;;;18.67;15.15;;;;;;;;;;4992546;28;20111;-70
2022/05/01 06:23:30;;;;;;;20.42;14.35;;;;;;;;;;4992496;28;20061;-70
2022/05/01 06:25:57;;;;;;;17.58;14.02;;;;;;;;;;4991483;28;20103;-69
2022/05/01 06:28:24;;;;;;;17.13;13.57;;;;;;;;;;4993355;28;20053;-71
2022/05/01 06:30:52;;;;;;;17.83;13.50;;;;;;;;;;4989371;28;20058;-70
2022/05/01 06:33:23;;;;;;;20.48;14.13;;;;;;;;;;4987754;28;20101;-71
2022/05/01 06:35:52;;;;;;;19.52;14.32;;;;;;;;;;4989368;28;20081;-72
2022/05/01 06:38:21;;;;;;;16.50;13.40;;;;;;;;;;4989301;28;20157;-72
2022/05/01 06:40:48;;;;;;;16.88;12.73;;;;;;;;;;4990553;28;20054;-70
2022/05/01 06:43:17;;;;;;;15.40;11.48;;;;;;;;;;4989751;28;20160;-70
2022/05/01 06:45:45;;;;;;;19.58;11.00;;;;;;;;;;4994237;28;20061;-70
2022/05/01 06:48:12;;;;;;;15.52;11.40;;;;;;;;;;4993747;28;20069;-71
2022/05/01 06:50:39;;;;;;;11.25;7.55;;;;;;;;;;4993980;28;20181;-70
2022/05/01 06:53:07;;;;;;;13.00;9.52;;;;;;;;;;4999939;28;20057;-70
2022/05/01 06:55:36;;;;;;;15.10;9.02;;;;;;;;;;4996845;28;20050;-70
2022/05/01 06:58:04;;;;;;;15.02;8.75;;;;;;;;;;4997386;28;20056;-70
2022/05/01 07:00:31;;;;;;;13.45;9.05;;;;;;;;;;4996656;28;20053;-70
2022/05/01 07:02:59;;;;;;;13.68;9.75;;;;;;;;;;4998745;28;20496;-70
2022/05/01 07:05:26;;;;;;;14.88;9.57;;;;;;;;;;5000206;28;20544;-71
2022/05/01 07:07:54;;;;;;;10.77;7.68;;;;;;;;;;5002588;28;20134;-70
2022/05/01 07:10:22;;;;;;;17.67;8.63;;;;;;;;;;5005234;28;20050;-70
2022/05/01 07:12:50;;;;;;;12.10;8.50;;;;;;;;;;5006793;28;20533;-70
2022/05/01 07:15:18;;;;;;;12.02;8.00;;;;;;;;;;5005511;28;20061;-70
2022/05/01 07:17:45;;;;;;;9.70;6.93;;;;;;;;;;5003654;28;20160;-71
2022/05/01 07:20:13;;;;;;;13.52;6.65;;;;;;;;;;5003857;28;20049;-71
2022/05/01 07:22:40;;;;;;;11.93;6.32;;;;;;;;;;5003175;28;20049;-71
2022/05/01 07:25:07;;;;;;;9.50;6.68;;;;;;;;;;5004565;28;20096;-70
2022/05/01 07:27:35;;;;;;;12.60;6.68;;;;;;;;;;5004916;28;20154;-70
2022/05/01 07:30:03;;;;;;;10.15;7.25;;;;;;;;;;5006652;28;20054;-70
2022/05/01 07:32:31;;;;;;;11.30;6.75;;;;;;;;;;5007335;28;20116;-71
2022/05/01 07:34:58;;;;;;;8.20;5.70;;;;;;;;;;4998748;28;20053;-71
2022/05/01 07:37:26;;;;;;;6.97;4.78;;;;;;;;;;5000881;28;20134;-71
2022/05/01 07:39:54;;;;;;;8.25;5.90;;;;;;;;;;5003600;28;20054;-70
2022/05/01 07:42:23;;;;;;;8.43;5.80;;;;;;;;;;5000997;28;20065;-71
2022/05/01 07:44:52;;;;;;;9.32;5.97;;;;;;;;;;4998160;28;20492;-71
2022/05/01 07:47:21;;;;;;;9.30;5.25;;;;;;;;;;5000613;28;20108;-70
2022/05/01 07:49:48;;;;;;;7.53;5.18;;;;;;;;;;5002641;28;20050;-71
2022/05/01 07:52:17;;;;;;;7.63;5.25;;;;;;;;;;5003231;28;20057;-71
2022/05/01 07:54:44;;;;;;;9.48;5.88;;;;;;;;;;5005401;28;20464;-71
2022/05/01 07:57:11;;;;;;;7.55;5.30;;;;;;;;;;5005636;28;20054;-71
2022/05/01 07:59:38;;;;;;;7.68;5.30;;;;;;;;;;5006434;28;20066;-70
2022/05/01 08:02:05;;;;;;;11.77;6.30;;;;;;;;;;5003060;28;20058;-70
2022/05/01 08:04:34;;;;;;;6.90;5.28;;;;;;;;;;5004537;28;20056;-70
2022/05/01 08:07:02;;;;;;;9.32;5.35;;;;;;;;;;5005049;28;20660;-70
2022/05/01 08:09:30;;;;;;;7.32;4.72;;;;;;;;;;5003734;28;20074;-70
2022/05/01 08:11:57;;;;;;;11.98;6.13;;;;;;;;;;5004652;28;20104;-71
2022/05/01 08:14:24;;;;;;;12.10;6.30;;;;;;;;;;5009209;28;20058;-71
2022/05/01 08:16:52;;;;;;;10.93;5.97;;;;;;;;;;5004301;28;20734;-71
2022/05/01 08:22:06;;;;;;;7.28;4.00;;;;;;;;;;5004878;28;20147;-71
2022/05/01 08:24:33;;;;;;;7.30;3.97;;;;;;;;;;5003696;28;20085;-72
2022/05/01 08:27:05;;;;;;;11.48;6.68;;;;;;;;;;5001695;28;20394;-71
2022/05/01 08:29:33;;;;;;;8.55;6.40;;;;;;;;;;5002143;28;20785;-70
2022/05/01 08:32:00;;;;;;;8.52;6.70;;;;;;;;;;5000505;28;20137;-70
2022/05/01 08:34:28;;;;;;;10.00;6.13;;;;;;;;;;4998917;28;20056;-70
2022/05/01 08:36:55;;;;;;;7.57;5.72;;;;;;;;;;5002462;28;20069;-70
2022/05/01 08:39:24;;;;;;;7.93;5.15;;;;;;;;;;5000103;28;20091;-71
2022/05/01 08:41:51;;;;;;;8.80;5.40;;;;;;;;;;5002965;28;20061;-71
2022/05/01 08:44:23;;;;;;;8.45;5.22;;;;;;;;;;5000247;28;20080;-70
2022/05/01 08:47:05;;;;;;;7.30;5.20;;;;;;;;;;5001847;28;20058;-70
2022/05/01 08:49:34;;;;;;;8.68;5.20;;;;;;;;;;4996961;28;20068;-70
2022/05/01 08:52:02;;;;;;;11.05;5.15;;;;;;;;;;5004019;28;20077;-71
2022/05/01 08:54:32;;;;;;;8.05;4.60;;;;;;;;;;5003505;28;20108;-70
2022/05/01 08:57:00;;;;;;;5.57;4.22;;;;;;;;;;5003810;28;20050;-71
2022/05/01 08:59:28;;;;;;;6.20;4.40;;;;;;;;;;5005541;28;20862;-70
2022/05/01 09:01:56;;;;;;;8.77;4.55;;;;;;;;;;5004286;28;20420;-70
2022/05/01 09:04:25;;;;;;;9.35;4.97;;;;;;;;;;5006776;28;20046;-70
2022/05/01 09:06:53;;;;;;;10.55;5.05;;;;;;;;;;5002117;28;20111;-70
2022/05/01 09:09:21;;;;;;;7.53;5.03;;;;;;;;;;5004062;28;20053;-71
2022/05/01 09:14:36;;;;;;;7.97;4.78;;;;;;;;;;5001885;28;20053;-70
2022/05/01 09:17:11;;;;;;;11.77;4.63;;;;;;;;;;4999289;28;20050;-70
2022/05/01 09:19:38;;;;;;;6.22;4.35;;;;;;;;;;5002647;28;20064;-71
2022/05/01 09:22:05;;;;;;;7.43;4.20;;;;;;;;;;5001980;28;20460;-71
2022/05/01 09:24:33;;;;;;;6.65;4.22;;;;;;;;;;5002355;28;20050;-71
2022/05/01 09:27:02;;;;;;;7.38;3.97;;;;;;;;;;5000377;28;20057;-71
2022/05/01 09:29:32;;;;;;;4.53;3.40;;;;;;;;;;5003503;28;20393;-70
2022/05/01 09:32:01;;;;;;;5.90;3.90;;;;;;;;;;5004589;28;20197;-71
2022/05/01 09:34:29;;;;;;;5.60;3.60;;;;;;;;;;5006441;28;20054;-71
2022/05/01 09:36:58;;;;;;;6.20;3.95;;;;;;;;;;5001641;28;20799;-71
2022/05/01 09:39:26;;;;;;;7.63;3.58;;;;;;;;;;5009463;28;20053;-70
2022/05/01 09:41:54;;;;;;;7.40;4.50;;;;;;;;;;5001927;28;20061;-70
2022/05/01 09:44:23;;;;;;;6.05;3.42;;;;;;;;;;5004336;28;20509;-70
2022/05/01 09:46:52;;;;;;;6.32;3.13;;;;;;;;;;5001639;28;20145;-71
2022/05/01 09:49:20;;;;;;;4.97;3.67;;;;;;;;;;5006659;28;20065;-71
2022/05/01 09:51:54;;;;;;;7.80;3.85;;;;;;;;;;5001169;28;20081;-70
2022/05/01 09:54:22;;;;;;;8.10;3.75;;;;;;;;;;5005144;28;20050;-71
2022/05/01 09:56:50;;;;;;;5.10;3.35;;;;;;;;;;5001713;28;20054;-71
2022/05/01 09:59:17;;;;;;;6.40;3.90;;;;;;;;;;5006653;28;21524;-70
2022/05/01 10:02:02;;;;;;;8.70;4.57;;;;;;;;;;5004229;28;20116;-71
2022/05/01 10:04:30;;;;;;;5.25;3.50;;;;;;;;;;5005504;28;20050;-70
2022/05/01 10:06:57;;;;;;;6.60;3.85;;;;;;;;;;5006228;28;20053;-71
2022/05/01 10:09:26;;;;;;;5.93;3.35;;;;;;;;;;5005097;28;20160;-70
2022/05/01 10:11:55;;;;;;;7.57;4.10;;;;;;;;;;5004840;28;20065;-71
2022/05/01 10:14:22;;;;;;;8.18;3.58;;;;;;;;;;5006627;28;20046;-71
2022/05/01 10:16:50;;;;;;;6.68;4.10;;;;;;;;;;5007099;28;20046;-71
2022/05/01 10:19:19;;;;;;;6.68;3.90;;;;;;;;;;5004894;28;20049;-71
2022/05/01 10:21:48;;;;;;;5.93;4.05;;;;;;;;;;5003791;28;20524;-70
2022/05/01 10:24:15;;;;;;;8.90;4.30;;;;;;;;;;5005764;28;20081;-71
2022/05/01 10:26:46;;;;;;;8.63;4.57;;;;;;;;;;5008634;28;20064;-71
2022/05/01 10:29:40;;;;;;;9.00;4.30;;;;;;;;;;5009193;28;20049;-70
2022/05/01 10:32:22;;;;;;;10.82;5.03;;;;;;;;;;5006607;28;20058;-71
2022/05/01 10:34:59;;;;;;;6.38;3.97;;;;;;;;;;5002307;28;20880;-71
2022/05/01 10:37:31;;;;;;;5.85;3.80;;;;;;;;;;5002636;28;20710;-71
2022/05/01 10:39:59;;;;;;;6.83;4.37;;;;;;;;;;5006558;28;20077;-71
2022/05/01 10:42:38;;;;;;;7.68;4.10;;;;;;;;;;5008079;28;20772;-70
2022/05/01 10:45:20;;;;;;;5.07;3.72;;;;;;;;;;5005284;28;20057;-71
2022/05/01 10:47:49;;;;;;;9.38;4.38;;;;;;;;;;5006284;28;20058;-70
2022/05/01 10:50:23;;;;;;;6.32;4.10;;;;;;;;;;5005870;28;20046;-71
2022/05/01 10:52:50;;;;;;;;;;;;;;;;;;5008477;28;20065;-71
2022/05/01 10:55:17;;;;;;;5.63;3.97;;;;;;;;;;5006136;28;19922;-71
2022/05/01 10:58:04;;;;;;;8.15;3.78;;;;;;;;;;5004903;28;20065;-71
2022/05/01 11:00:33;;;;;;;7.88;4.15;;;;;;;;;;5008368;28;20046;-71
2022/05/01 11:03:00;;;;;;;6.90;4.05;;;;;;;;;;5007167;28;20374;-71
2022/05/01 11:05:43;;;;;;;5.45;3.92;;;;;;;;;;5008155;28;20445;-70
2022/05/01 11:08:14;;;;;;;4.95;3.38;;;;;;;;;;5002772;28;20064;-70
2022/05/01 11:10:42;;;;;;;5.90;3.58;;;;;;;;;;5009147;28;20058;-71
2022/05/01 11:13:13;;;;;;;7.57;4.22;;;;;;;;;;5008455;28;20531;-71
2022/05/01 11:15:49;;;;;;;6.95;3.97;;;;;;;;;;5007611;28;20053;-71
2022/05/01 11:18:17;;;;;;;6.13;3.53;;;;;;;;;;5009562;28;20465;-71
2022/05/01 11:20:46;;;;;;;5.75;3.53;;;;;;;;;;5007451;28;20046;-71
2022/05/01 11:23:31;;;;;;;6.13;3.30;;;;;;;;;;5008663;28;20061;-71
2022/05/01 11:26:22;;;;;;;5.93;3.47;;;;;;;;;;5009182;28;20100;-71
2022/05/01 11:28:53;;;;;;;5.45;3.25;;;;;;;;;;4989160;28;20417;-71
2022/05/01 11:31:39;;;;;;;4.95;2.90;;;;;;;;;;5005585;28;20085;-71
2022/05/01 11:34:25;;;;;;;5.95;2.75;;;;;;;;;;5003607;28;20057;-71
2022/05/01 11:36:54;;;;;;;6.55;2.95;;;;;;;;;;4999486;28;20132;-71
2022/05/01 11:39:22;;;;;;;5.78;2.95;;;;;;;;;;5006034;28;20085;-71
2022/05/01 11:42:00;;;;;;;5.35;3.25;;;;;;;;;;5007040;28;20054;-71
2022/05/01 11:44:28;;;;;;;4.28;3.25;;;;;;;;;;5009055;28;20124;-71
2022/05/01 11:46:58;;;;;;;5.22;2.85;;;;;;;;;;5006999;28;20061;-71
2022/05/01 11:49:29;;;;;;;4.20;2.90;;;;;;;;;;5008600;28;20546;-71
2022/05/01 11:51:59;;;;;;;3.92;2.67;;;;;;;;;;5008765;28;20462;-71
2022/05/01 11:54:27;;;;;;;3.25;2.55;;;;;;;;;;5005060;28;20053;-71
2022/05/01 12:02:37;;;;;;;4.85;2.60;;;;;;;;;;4998523;28;20118;-69
2022/05/01 12:05:05;;;;;;;3.42;2.22;;;;;;;;;;5000306;28;20156;-70
2022/05/01 12:07:34;;;;;;;4.32;2.20;;;;;;;;;;5005790;28;20060;-70
2022/05/01 12:10:01;;;;;;;7.50;2.47;;;;;;;;;;5007300;28;20054;-70
2022/05/01 12:12:29;;;;;;;4.40;2.50;;;;;;;;;;5008326;28;20083;-69
2022/05/01 12:14:57;;;;;;;4.03;2.53;;;;;;;;;;5006828;28;20508;-70
2022/05/01 12:17:25;;;;;;;4.30;2.50;;;;;;;;;;5008309;28;20045;-69
2022/05/01 12:19:54;;;;;;;4.47;2.55;;;;;;;;;;5008631;28;20377;-70
2022/05/01 12:22:23;;;;;;;6.28;2.75;;;;;;;;;;5004884;28;20156;-70
2022/05/01 12:24:55;;;;;;;3.67;2.30;;;;;;;;;;5007174;28;20636;-70
2022/05/01 12:27:26;;;;;;;3.13;2.30;;;;;;;;;;4998272;28;20046;-71
2022/05/01 12:29:54;;;;;;;3.90;2.50;;;;;;;;;;5008643;28;20056;-69
2022/05/01 12:32:21;;;;;;;5.65;2.60;;;;;;;;;;5004571;28;20136;-69
2022/05/01 12:34:56;;;;;;;5.72;2.70;;;;;;;;;;5005958;28;20065;-69
2022/05/01 12:37:27;;;;;;;5.85;2.65;;;;;;;;;;5006325;28;20089;-69
2022/05/01 12:39:59;;;;;;;4.28;2.33;;;;;;;;;;5005253;28;20061;-70
2022/05/01 12:45:24;;;;;;;6.60;2.70;;;;;;;;;;4926474;29;20195;-69
2022/05/01 12:47:52;;;;;;;5.03;2.60;;;;;;;;;;4980890;28;20155;-69
2022/05/01 12:50:27;;;;;;;5.35;2.53;;;;;;;;;;5000775;28;20432;-69
2022/05/01 12:52:57;;;;;;;4.03;2.20;;;;;;;;;;5005510;28;20128;-69
2022/05/01 12:55:31;;;;;;;4.95;2.17;;;;;;;;;;5006510;28;20100;-70
2022/05/01 12:57:59;;;;;;;4.32;2.25;;;;;;;;;;5007579;28;20058;-70
2022/05/01 13:00:34;;;;;;;3.05;2.17;;;;;;;;;;5004856;28;20054;-70
2022/05/01 13:03:14;;;;;;;6.25;2.30;;;;;;;;;;5002443;28;20061;-70
2022/05/01 13:05:42;;;;;;;5.30;2.15;;;;;;;;;;5006329;28;20092;-70
2022/05/01 13:08:19;;;;;;;5.22;2.50;;;;;;;;;;5006336;28;20060;-70
2022/05/01 13:11:01;;;;;;;3.17;2.20;;;;;;;;;;5003727;28;20133;-69
2022/05/01 13:13:30;;;;;;;2.65;1.77;;;;;;;;;;5005797;28;20050;-69
2022/05/01 13:16:05;;;;;;;4.72;2.20;;;;;;;;;;5002821;28;20050;-70
2022/05/01 13:18:32;;;;;;;5.13;2.88;;;;;;;;;;5002470;28;20080;-69
2022/05/01 13:20:59;;;;;;;4.50;3.03;;;;;;;;;;5000982;28;20058;-69
2022/05/01 13:23:26;;;;;;;5.18;2.53;;;;;;;;;;5006110;28;20108;-69
2022/05/01 13:25:54;;;;;;;5.00;3.00;;;;;;;;;;5007045;28;20374;-70
2022/05/01 13:28:22;;;;;;;5.32;3.20;;;;;;;;;;5003710;28;20053;-69
2022/05/01 13:30:50;;;;;;;5.10;3.20;;;;;;;;;;5001791;28;20058;-70
2022/05/01 13:33:17;;;;;;;7.78;3.22;;;;;;;;;;4997571;28;20087;-72
2022/05/01 13:35:44;;;;;;;4.40;3.25;;;;;;;;;;4999694;28;20068;-69
2022/05/01 13:38:12;;;;;;;5.43;3.70;;;;;;;;;;4994918;28;20061;-69
2022/05/01 13:46:10;;;;;;;5.95;4.15;;;;;;;;;;4998132;28;20054;-69
2022/05/01 13:48:37;;;;;;;6.95;3.90;;;;;;;;;;4995966;28;20052;-70
2022/05/01 13:51:05;;;;;;;8.65;4.32;;;;;;;;;;4996276;28;20777;-70
2022/05/01 13:53:32;;;;;;;7.20;4.10;;;;;;;;;;4998666;28;20485;-71
2022/05/01 13:55:59;;;;;;;6.93;4.40;;;;;;;;;;4994009;28;20058;-71
2022/05/01 13:58:26;;;;;;;7.07;4.18;;;;;;;;;;4998395;28;20054;-71
2022/05/01 14:00:53;;;;;;;5.88;4.20;;;;;;;;;;4997709;28;20057;-71
2022/05/01 14:03:23;;;;;;;5.47;4.18;;;;;;;;;;5002972;28;20045;-68
2022/05/01 14:05:51;;;;;;;9.10;4.50;;;;;;;;;;5001504;28;20050;-69
2022/05/01 14:08:18;;;;;;;8.10;4.82;;;;;;;;;;4999618;28;20050;-69
2022/05/01 14:10:45;;;;;;;6.68;4.53;;;;;;;;;;4997880;28;20547;-69
2022/05/01 14:13:13;;;;;;;6.20;4.40;;;;;;;;;;4996208;28;20095;-69
2022/05/01 14:15:40;;;;;;;6.97;4.55;;;;;;;;;;4997076;28;20050;-69
2022/05/01 14:18:10;;;;;;;7.53;4.38;;;;;;;;;;4999102;28;20050;-68
2022/05/01 14:20:41;;;;;;;5.97;4.25;;;;;;;;;;5004212;28;20058;-68
2022/05/01 14:23:09;;;;;;;8.85;4.88;;;;;;;;;;5004768;28;20072;-69
2022/05/01 14:25:37;;;;;;;4.97;3.97;;;;;;;;;;5005634;28;20050;-68
2022/05/01 14:28:04;;;;;;;9.65;4.32;;;;;;;;;;5004672;28;20061;-70
2022/05/01 14:30:31;;;;;;;5.65;3.60;;;;;;;;;;5004118;28;20100;-71
2022/05/01 14:33:01;;;;;;;6.82;3.72;;;;;;;;;;5000835;28;20053;-71
2022/05/01 14:35:32;;;;;;;6.72;4.03;;;;;;;;;;5002937;28;20159;-71
2022/05/01 14:38:03;;;;;;;5.57;3.65;;;;;;;;;;4999353;28;20061;-71
2022/05/01 14:40:31;;;;;;;5.85;3.65;;;;;;;;;;4999865;28;20050;-71
2022/05/01 14:43:01;;;;;;;4.30;3.42;;;;;;;;;;4999729;28;20054;-71
2022/05/01 14:45:29;;;;;;;7.18;3.47;;;;;;;;;;4998207;28;20058;-71
2022/05/01 14:48:06;;;;;;;5.57;3.47;;;;;;;;;;5001586;28;20068;-71
2022/05/01 14:50:34;;;;;;;4.88;3.15;;;;;;;;;;4997171;28;20147;-71
2022/05/01 14:53:03;;;;;;;5.18;3.00;;;;;;;;;;5000340;28;20046;-71
2022/05/01 14:55:30;;;;;;;3.83;2.95;;;;;;;;;;4996502;28;20062;-72
2022/05/01 14:57:57;;;;;;;7.40;3.45;;;;;;;;;;4998331;28;20060;-70
2022/05/01 15:08:43;;;;;;;4.60;3.10;;;;;;;;;;5007471;28;20550;-71
2022/05/01 15:11:11;;;;;;;4.63;3.40;;;;;;;;;;5009502;28;20046;-71
2022/05/01 15:13:38;;;;;;;8.32;3.20;;;;;;;;;;5011253;28;20050;-72
2022/05/01 15:16:09;;;;;;;5.70;3.03;;;;;;;;;;5008995;28;20071;-72
2022/05/01 15:18:42;;;;;;;4.70;2.95;;;;;;;;;;5005502;28;20108;-72
2022/05/01 15:21:14;;;;;;;4.70;3.00;;;;;;;;;;5003758;28;20061;-72
2022/05/01 15:23:46;;;;;;;5.23;3.07;;;;;;;;;;5007039;28;20060;-71
2022/05/01 15:26:15;;;;;;;4.32;3.20;;;;;;;;;;5012023;28;20392;-71
2022/05/01 15:28:43;;;;;;;7.20;3.08;;;;;;;;;;5008717;28;20117;-71
2022/05/01 15:31:13;;;;;;;5.22;3.30;;;;;;;;;;5007483;28;20060;-71